Time;durP1;ratioP1;P1;durP2;ratioP2;P2;SDS_P1;SDS_P2;PMS_P1;PMS_P2;Temp;Humidity;BMP_temperature;BMP_pressure;BME280_temperature;BME280_humidity;BME280_pressure;Samples;Min_cycle;Max_cycle;Signal;HPM_P1;HPM_P2
2021/05/01 00:00:56;;;;;;;10.60;7.60;;;;;;;6.85;74.93;101521.78;5134520;28;20020;-39
2021/05/01 00:03:21;;;;;;;10.98;7.38;;;;;;;6.71;75.11;101526.19;5133986;28;20084;-39
2021/05/01 00:05:46;;;;;;;13.27;8.37;;;;;;;6.62;75.81;101527.31;5133685;28;20064;-39
2021/05/01 00:08:12;;;;;;;11.30;8.10;;;;;;;6.66;75.92;101523.22;5134147;28;20055;-39
2021/05/01 00:10:37;;;;;;;11.13;7.83;;;;;;;6.59;75.56;101512.41;5134229;28;20026;-39
2021/05/01 00:13:03;;;;;;;11.93;7.10;;;;;;;6.57;75.47;101519.81;5133585;28;20478;-39
2021/05/01 00:15:28;;;;;;;10.50;7.17;;;;;;;6.56;75.86;101518.16;5133942;28;20098;-39
2021/05/01 00:17:53;;;;;;;11.13;7.50;;;;;;;6.50;76.10;101518.06;5133755;28;20062;-39
2021/05/01 00:20:19;;;;;;;10.87;7.30;;;;;;;6.48;75.54;101512.03;5133573;28;20023;-39
2021/05/01 00:22:44;;;;;;;11.43;8.53;;;;;;;6.32;75.80;101519.28;5133528;28;20269;-39
2021/05/01 00:25:10;;;;;;;9.73;7.40;;;;;;;6.30;76.01;101518.66;5136728;27;20030;-39
2021/05/01 00:27:36;;;;;;;12.30;7.30;;;;;;;6.17;76.14;101513.09;5137871;27;20114;-39
2021/05/01 00:30:02;;;;;;;11.10;8.47;;;;;;;6.07;76.81;101515.22;5137693;27;20460;-39
2021/05/01 00:32:27;;;;;;;12.23;8.68;;;;;;;6.08;76.94;101517.72;5137566;27;20392;-39
2021/05/01 00:34:52;;;;;;;10.57;7.70;;;;;;;6.09;77.13;101519.38;5137839;27;20102;-39
2021/05/01 00:37:18;;;;;;;10.47;8.03;;;;;;;5.97;76.35;101515.50;5137456;27;20027;-39
2021/05/01 00:39:43;;;;;;;9.77;8.50;;;;;;;5.97;77.12;101511.97;5137339;27;20107;-39
2021/05/01 00:42:08;;;;;;;11.67;8.43;;;;;;;6.01;77.54;101507.91;5137107;27;20047;-39
2021/05/01 00:44:33;;;;;;;12.77;7.97;;;;;;;6.00;76.81;101506.22;5136756;27;20136;-39
2021/05/01 00:46:59;;;;;;;11.93;8.33;;;;;;;5.87;76.74;101499.63;5137310;27;20030;-39
2021/05/01 00:49:24;;;;;;;10.17;8.40;;;;;;;5.75;76.58;101506.44;5137244;27;20027;-39
2021/05/01 00:51:49;;;;;;;11.27;8.47;;;;;;;5.75;77.07;101503.78;5136892;27;20463;-39
2021/05/01 00:54:15;;;;;;;10.47;7.87;;;;;;;5.70;76.96;101506.16;5136810;27;20031;-39
2021/05/01 00:56:41;;;;;;;11.48;8.55;;;;;;;5.67;77.50;101506.56;5137348;27;20030;-39
2021/05/01 00:59:06;;;;;;;11.52;8.57;;;;;;;5.73;77.31;101508.50;5136977;27;20489;-39
2021/05/01 01:01:32;;;;;;;12.67;8.47;;;;;;;5.75;77.01;101503.78;5136800;27;20504;-39
2021/05/01 01:03:57;;;;;;;10.30;8.10;;;;;;;5.75;77.25;101509.13;5136651;27;20459;-39
2021/05/01 01:06:22;;;;;;;11.23;8.87;;;;;;;5.65;76.96;101492.47;5137493;27;20020;-39
2021/05/01 01:08:48;;;;;;;13.60;9.17;;;;;;;5.66;77.28;101495.00;5137368;27;20218;-39
2021/05/01 01:11:14;;;;;;;9.30;8.27;;;;;;;5.47;77.30;101482.09;5137382;27;20019;-39
2021/05/01 01:13:39;;;;;;;11.40;8.13;;;;;;;5.50;77.45;101494.28;5137288;27;20023;-39
2021/05/01 01:16:05;;;;;;;10.57;8.55;;;;;;;5.41;77.64;101489.00;5137220;27;20027;-39
2021/05/01 01:18:31;;;;;;;10.95;8.43;;;;;;;5.36;77.47;101496.75;5137018;27;20027;-39
2021/05/01 01:21:00;;;;;;;10.00;8.43;;;;;;;5.40;77.59;101492.69;5136940;27;20089;-39
2021/05/01 01:23:26;;;;;;;11.68;8.77;;;;;;;5.45;77.79;101491.31;5136219;27;20027;-39
2021/05/01 01:25:52;;;;;;;;;;;;;;;5.58;76.74;101488.88;5137617;27;20023;-39
2021/05/01 01:28:18;;;;;;;10.60;8.43;;;;;;;5.41;77.27;101486.31;5136444;27;19930;-39
2021/05/01 01:30:43;;;;;;;13.15;9.38;;;;;;;5.37;77.33;101486.88;5137270;27;20035;-39
2021/05/01 01:33:11;;;;;;;11.93;9.00;;;;;;;5.40;77.46;101490.00;5136446;27;20567;-39
2021/05/01 01:35:38;;;;;;;12.93;9.93;;;;;;;5.30;77.62;101493.97;5135937;27;20023;-39
2021/05/01 01:38:05;;;;;;;14.48;10.60;;;;;;;5.25;77.91;101480.28;5136467;27;20424;-39
2021/05/01 01:40:31;;;;;;;12.80;10.05;;;;;;;5.15;77.37;101485.88;5136493;27;20054;-39
2021/05/01 01:42:56;;;;;;;11.65;10.15;;;;;;;5.09;77.79;101481.25;5135847;27;20456;-39
2021/05/01 01:45:27;;;;;;;13.63;11.47;;;;;;;5.09;78.33;101481.25;5135814;27;20030;-39
2021/05/01 01:47:52;;;;;;;14.10;10.50;;;;;;;4.93;77.50;101487.56;5136368;27;20050;-39
2021/05/01 01:50:19;;;;;;;12.27;10.98;;;;;;;4.91;77.08;101498.44;5136180;27;20027;-39
2021/05/01 01:52:45;;;;;;;16.33;12.18;;;;;;;4.85;78.63;101488.44;5136288;27;20027;-39
2021/05/01 01:55:12;;;;;;;13.65;11.48;;;;;;;4.78;78.38;101490.16;5136751;27;20027;-39
2021/05/01 01:57:38;;;;;;;14.88;12.05;;;;;;;4.78;78.59;101489.31;5135865;27;20027;-39
2021/05/01 02:00:10;;;;;;;13.77;12.30;;;;;;;4.71;78.89;101488.38;5136066;27;20046;-39
2021/05/01 02:02:35;;;;;;;15.82;12.43;;;;;;;4.66;78.69;101486.22;5136012;27;20080;-39
2021/05/01 02:05:01;;;;;;;15.63;13.60;;;;;;;4.64;79.08;101485.56;5136823;27;20023;-39
2021/05/01 02:07:27;;;;;;;15.52;12.52;;;;;;;4.55;78.57;101483.94;5135955;27;20288;-39
2021/05/01 02:09:52;;;;;;;18.90;13.27;;;;;;;4.54;78.78;101479.56;5135998;27;20027;-39
2021/05/01 02:12:18;;;;;;;17.73;13.37;;;;;;;4.55;79.13;101478.59;5135639;27;20026;-39
2021/05/01 02:14:43;;;;;;;18.07;14.20;;;;;;;4.52;79.80;101479.75;5136245;27;20023;-39
2021/05/01 02:17:08;;;;;;;17.13;14.37;;;;;;;4.47;79.16;101481.28;5135504;27;20054;-39
2021/05/01 02:19:34;;;;;;;15.97;13.63;;;;;;;4.45;79.30;101477.97;5135769;27;20023;-39
2021/05/01 02:21:59;;;;;;;15.77;13.80;;;;;;;4.42;79.13;101478.31;5136233;27;20531;-39
2021/05/01 02:24:25;;;;;;;17.13;14.20;;;;;;;4.40;79.45;101481.16;5135900;27;20050;-39
2021/05/01 02:26:50;;;;;;;17.97;14.73;;;;;;;4.39;78.82;101471.44;5135308;27;20027;-39
2021/05/01 02:29:15;;;;;;;18.33;15.07;;;;;;;4.30;79.20;101481.38;5135332;27;20027;-39
2021/05/01 02:31:41;;;;;;;16.87;14.37;;;;;;;4.29;78.90;101479.69;5135621;27;20046;-39
2021/05/01 02:34:06;;;;;;;19.23;15.85;;;;;;;4.19;79.43;101476.38;5135486;27;20111;-38
2021/05/01 02:36:32;;;;;;;21.13;15.97;;;;;;;4.18;79.19;101488.13;5135016;27;20027;-39
2021/05/01 02:38:57;;;;;;;16.83;14.07;;;;;;;4.17;79.12;101489.13;5135310;27;20027;-39
2021/05/01 02:41:24;;;;;;;18.33;15.30;;;;;;;4.12;79.00;101491.50;5135442;27;20706;-39
2021/05/01 02:43:50;;;;;;;19.67;16.27;;;;;;;4.07;79.79;101485.81;5135200;27;20367;-39
2021/05/01 02:46:15;;;;;;;18.77;15.90;;;;;;;4.02;80.13;101491.69;5134954;27;20032;-39
2021/05/01 02:48:40;;;;;;;19.53;16.00;;;;;;;4.00;79.35;101485.69;5135027;27;20077;-39
2021/05/01 02:51:06;;;;;;;18.73;16.27;;;;;;;4.01;79.70;101479.31;5134982;27;20046;-39
2021/05/01 02:53:31;;;;;;;21.43;16.87;;;;;;;3.96;80.44;101479.00;5134839;27;20030;-39
2021/05/01 02:55:57;;;;;;;20.75;17.77;;;;;;;3.97;80.42;101477.16;5134948;27;20060;-39
2021/05/01 02:58:22;;;;;;;18.47;16.67;;;;;;;3.91;80.41;101475.19;5134694;27;20027;-39
2021/05/01 03:00:47;;;;;;;21.60;17.37;;;;;;;3.85;79.88;101465.97;5135153;27;20026;-39
2021/05/01 03:03:13;;;;;;;22.77;16.13;;;;;;;3.86;79.90;101473.00;5134708;27;20455;-39
2021/05/01 03:05:38;;;;;;;19.23;17.13;;;;;;;3.84;80.04;101465.13;5134741;27;20021;-39
2021/05/01 03:08:04;;;;;;;20.97;18.20;;;;;;;3.80;79.96;101469.16;5134366;27;20047;-39
2021/05/01 03:10:30;;;;;;;22.60;18.83;;;;;;;3.76;80.74;101467.03;5134634;27;20031;-39
2021/05/01 03:12:55;;;;;;;23.25;18.85;;;;;;;3.78;81.13;101455.13;5134513;27;20118;-39
2021/05/01 03:15:22;;;;;;;22.52;18.58;;;;;;;3.78;80.80;101460.47;5134309;27;20057;-39
2021/05/01 03:17:48;;;;;;;24.20;18.70;;;;;;;3.73;80.69;101465.50;5134182;27;20027;-39
2021/05/01 03:20:15;;;;;;;21.20;18.02;;;;;;;3.75;80.30;101465.34;5134758;27;20023;-39
2021/05/01 03:22:42;;;;;;;22.25;18.40;;;;;;;3.76;81.20;101462.50;5134521;27;20046;-39
2021/05/01 03:25:09;;;;;;;23.25;18.95;;;;;;;3.73;81.12;101468.19;5134493;27;20034;-39
2021/05/01 03:27:34;;;;;;;23.00;19.48;;;;;;;3.67;81.36;101460.84;5134759;27;20025;-39
2021/05/01 03:30:00;;;;;;;25.92;20.20;;;;;;;3.63;81.79;101462.19;5134963;27;20193;-39
2021/05/01 03:32:26;;;;;;;22.35;19.60;;;;;;;3.60;81.09;101459.84;5134523;27;20027;-39
2021/05/01 03:34:51;;;;;;;22.93;18.77;;;;;;;3.56;81.72;101454.03;5134833;27;20451;-39
2021/05/01 03:37:16;;;;;;;22.37;19.43;;;;;;;3.51;81.80;101453.69;5134572;27;20045;-39
2021/05/01 03:39:42;;;;;;;22.77;20.00;;;;;;;3.58;81.56;101451.19;5134870;27;20027;-39
2021/05/01 03:42:07;;;;;;;20.90;18.57;;;;;;;3.53;80.22;101454.34;5133922;27;20106;-39
2021/05/01 03:44:33;;;;;;;22.87;17.97;;;;;;;3.47;80.88;101452.38;5134732;27;20404;-38
2021/05/01 03:46:59;;;;;;;22.02;19.70;;;;;;;3.44;80.89;101451.88;5134161;27;20468;-39
2021/05/01 03:49:24;;;;;;;21.50;19.13;;;;;;;3.44;81.41;101450.03;5134125;27;20387;-39
2021/05/01 03:51:50;;;;;;;22.03;19.37;;;;;;;3.41;81.10;101450.34;5134110;27;20747;-39
2021/05/01 03:54:16;;;;;;;20.98;18.77;;;;;;;3.40;81.75;101459.38;5134941;27;20114;-39
2021/05/01 03:56:41;;;;;;;21.63;18.48;;;;;;;3.39;80.66;101451.53;5134713;28;20038;-38
2021/05/01 03:59:07;;;;;;;21.03;18.70;;;;;;;3.45;81.00;101458.88;5135497;27;20027;-39
2021/05/01 04:01:32;;;;;;;21.03;18.80;;;;;;;3.39;81.06;101451.53;5138961;27;20042;-39
2021/05/01 04:03:58;;;;;;;22.77;18.03;;;;;;;3.39;81.13;101452.38;5138892;27;20023;-39
2021/05/01 04:06:23;;;;;;;21.73;19.27;;;;;;;3.41;81.39;101462.88;5138425;27;20479;-39
2021/05/01 04:08:48;;;;;;;21.70;18.73;;;;;;;3.51;81.62;101444.81;5138804;27;20483;-39
2021/05/01 04:11:14;;;;;;;23.67;19.60;;;;;;;3.40;82.06;101455.88;5138606;27;20075;-39
2021/05/01 04:13:47;;;;;;;23.00;19.33;;;;;;;3.36;82.52;101456.19;5137710;27;20363;-39
2021/05/01 04:16:16;;;;;;;20.02;17.80;;;;;;;3.36;81.96;101453.53;5138202;27;20366;-39
2021/05/01 04:18:42;;;;;;;22.70;18.77;;;;;;;3.29;81.42;101452.53;5137771;27;20031;-39
2021/05/01 04:21:07;;;;;;;21.23;18.20;;;;;;;3.31;81.42;101461.22;5138470;27;20034;-39
2021/05/01 04:23:33;;;;;;;21.90;18.30;;;;;;;3.26;81.07;101455.53;5138048;27;20382;-39
2021/05/01 04:25:59;;;;;;;24.33;20.08;;;;;;;3.41;81.68;101463.72;5137441;27;20257;-39
2021/05/01 04:28:24;;;;;;;31.23;22.23;;;;;;;3.32;82.26;101460.25;5137696;27;20038;-39
2021/05/01 04:30:50;;;;;;;35.33;22.53;;;;;;;3.33;80.83;101443.19;5138534;27;20034;-41
2021/05/01 04:33:16;;;;;;;28.88;21.95;;;;;;;3.33;81.61;101458.41;5137578;27;20027;-39
2021/05/01 04:35:41;;;;;;;27.57;20.93;;;;;;;3.35;81.30;101459.88;5137834;27;20034;-39
2021/05/01 04:38:06;;;;;;;27.23;19.80;;;;;;;3.38;81.58;101460.56;5137490;27;20115;-39
2021/05/01 04:40:32;;;;;;;27.60;19.97;;;;;;;3.48;81.59;101458.56;5138060;27;20447;-39
2021/05/01 04:43:01;;;;;;;24.00;19.80;;;;;;;3.46;81.68;101455.19;5137708;27;20024;-39
2021/05/01 04:45:28;;;;;;;23.38;18.92;;;;;;;3.48;81.81;101469.25;5137676;27;20113;-39
2021/05/01 04:47:53;;;;;;;23.58;17.38;;;;;;;3.51;81.44;101468.88;5137494;27;20110;-39
2021/05/01 04:50:19;;;;;;;22.30;19.45;;;;;;;3.50;81.32;101462.72;5137793;27;20054;-39
2021/05/01 04:52:44;;;;;;;20.47;18.27;;;;;;;3.55;81.42;101462.19;5137483;27;20023;-39
2021/05/01 04:55:16;;;;;;;21.07;17.73;;;;;;;3.66;81.63;101467.22;5137199;27;20486;-39
2021/05/01 04:57:43;;;;;;;20.23;17.75;;;;;;;3.76;81.58;101467.84;5135804;27;20055;-38
2021/05/01 05:00:10;;;;;;;20.90;17.48;;;;;;;3.80;82.13;101473.69;5137205;27;20402;-39
2021/05/01 05:02:36;;;;;;;19.38;17.02;;;;;;;3.79;81.33;101467.50;5137198;27;20031;-39
2021/05/01 05:05:03;;;;;;;23.17;17.73;;;;;;;3.92;81.46;101472.31;5137278;27;20038;-39
2021/05/01 05:07:28;;;;;;;21.38;17.52;;;;;;;3.87;81.41;101472.84;5136841;27;20047;-39
2021/05/01 05:09:54;;;;;;;20.67;17.40;;;;;;;3.96;81.67;101475.50;5135997;27;20027;-47
2021/05/01 05:12:19;;;;;;;21.90;17.83;;;;;;;3.99;81.57;101472.47;5137166;27;20035;-39
2021/05/01 05:14:44;;;;;;;20.23;17.37;;;;;;;4.13;81.85;101475.25;5136834;27;20250;-39
2021/05/01 05:17:10;;;;;;;20.57;15.83;;;;;;;4.24;81.00;101476.69;5135457;27;20031;-39
2021/05/01 05:19:35;;;;;;;18.60;16.60;;;;;;;4.34;80.45;101477.34;5136922;27;20041;-39
2021/05/01 05:22:01;;;;;;;18.80;15.20;;;;;;;4.51;80.15;101479.94;5137407;27;20030;-39
2021/05/01 05:24:26;;;;;;;19.90;16.63;;;;;;;4.59;80.21;101490.63;5136860;27;20023;-39
2021/05/01 05:26:51;;;;;;;23.30;16.63;;;;;;;4.70;80.03;101490.22;5136667;27;20050;-39
2021/05/01 05:29:17;;;;;;;17.67;14.53;;;;;;;4.80;79.71;101496.19;5136514;27;20106;-39
2021/05/01 05:31:44;;;;;;;16.80;14.83;;;;;;;4.90;79.60;101494.09;5136737;27;20378;-39
2021/05/01 05:34:09;;;;;;;19.60;15.23;;;;;;;4.97;78.98;101498.75;5136397;27;20080;-39
2021/05/01 05:36:34;;;;;;;18.87;15.77;;;;;;;5.09;79.01;101502.69;5136440;27;20023;-39
2021/05/01 05:39:00;;;;;;;16.00;14.30;;;;;;;5.21;78.53;101503.09;5136552;27;20416;-38
2021/05/01 05:41:25;;;;;;;16.03;14.43;;;;;;;5.30;78.82;101489.44;5137095;27;20424;-39
2021/05/01 05:43:51;;;;;;;20.17;14.65;;;;;;;5.33;78.23;101497.13;5135943;27;20030;-39
2021/05/01 05:46:18;;;;;;;17.40;14.75;;;;;;;5.38;78.43;101497.41;5136221;27;20031;-39
2021/05/01 05:48:44;;;;;;;15.88;13.63;;;;;;;5.47;77.71;101494.69;5136343;27;20038;-39
2021/05/01 05:51:09;;;;;;;18.37;13.50;;;;;;;5.56;77.57;101493.56;5136943;27;20027;-38
2021/05/01 05:53:35;;;;;;;13.70;12.40;;;;;;;5.60;78.12;101498.38;5135750;27;20019;-39
2021/05/01 05:56:00;;;;;;;16.45;12.80;;;;;;;5.71;77.85;101507.88;5136119;27;20031;-39
2021/05/01 05:58:26;;;;;;;17.97;13.33;;;;;;;5.78;77.40;101511.47;5135628;27;20057;-38
2021/05/01 06:00:52;;;;;;;13.80;12.40;;;;;;;5.83;77.41;101502.88;5136269;27;20035;-39
2021/05/01 06:03:19;;;;;;;15.35;13.48;;;;;;;5.91;77.44;101509.03;5136304;27;20033;-40
2021/05/01 06:05:50;;;;;;;14.98;12.68;;;;;;;6.01;77.28;101510.59;5136412;27;20027;-40
2021/05/01 06:08:16;;;;;;;17.95;13.80;;;;;;;6.11;76.89;101500.41;5135837;27;20417;-40
2021/05/01 06:10:44;;;;;;;16.15;11.88;;;;;;;6.16;76.71;101496.16;5135813;27;20559;-40
2021/05/01 06:13:11;;;;;;;14.18;12.35;;;;;;;6.27;76.61;101502.06;5135661;27;20027;-40
2021/05/01 06:15:36;;;;;;;15.02;12.02;;;;;;;6.35;76.13;101502.81;5135996;27;20027;-40
2021/05/01 06:18:02;;;;;;;17.85;11.40;;;;;;;6.39;76.28;101490.66;5135218;27;20103;-38
2021/05/01 06:20:29;;;;;;;12.65;10.25;;;;;;;6.49;75.96;101495.75;5135838;27;20424;-38
2021/05/01 06:22:54;;;;;;;12.85;11.55;;;;;;;6.58;75.35;101488.38;5135045;27;20364;-38
2021/05/01 06:25:20;;;;;;;14.57;10.90;;;;;;;6.62;75.56;101493.19;5135763;27;20046;-38
2021/05/01 06:27:47;;;;;;;14.80;10.93;;;;;;;6.68;75.15;101488.91;5135095;27;20463;-38
2021/05/01 06:30:13;;;;;;;13.98;11.15;;;;;;;6.79;76.00;101488.44;5135595;27;20042;-38
2021/05/01 06:32:39;;;;;;;12.20;10.23;;;;;;;6.89;75.19;101486.28;5135529;27;20459;-39
2021/05/01 06:35:06;;;;;;;12.70;10.23;;;;;;;7.01;74.72;101483.06;5135620;27;20083;-39
2021/05/01 06:37:32;;;;;;;12.50;9.93;;;;;;;7.11;74.48;101488.97;5135176;27;20015;-39
2021/05/01 06:40:06;;;;;;;12.75;10.85;;;;;;;7.20;74.36;101491.31;5134835;27;20459;-39
2021/05/01 06:42:35;;;;;;;13.85;10.02;;;;;;;7.32;74.76;101490.78;5135104;27;20042;-39
2021/05/01 06:45:13;;;;;;;14.40;9.65;;;;;;;7.38;73.68;101487.34;5135036;27;20225;-39
2021/05/01 06:47:48;;;;;;;14.80;10.20;;;;;;;7.47;73.84;101489.72;5134823;27;20390;-39
2021/05/01 06:50:14;;;;;;;10.80;9.43;;;;;;;7.55;73.24;101491.41;5134954;27;20055;-39
2021/05/01 06:52:42;;;;;;;;;;;;;;;7.73;73.55;101485.53;5135751;27;20035;-39
2021/05/01 06:55:09;;;;;;;10.57;8.70;;;;;;;7.67;72.33;101484.47;5135344;27;19907;-40
2021/05/01 06:57:38;;;;;;;12.88;9.15;;;;;;;7.74;72.86;101487.19;5134897;27;20063;-40
2021/05/01 07:00:08;;;;;;;11.75;8.82;;;;;;;7.82;72.12;101483.53;5134470;27;20043;-39
2021/05/01 07:02:40;;;;;;;9.65;7.38;;;;;;;7.89;71.86;101493.31;5134435;27;20490;-40
2021/05/01 07:05:09;;;;;;;13.25;7.60;;;;;;;7.95;71.82;101486.28;5135037;27;20019;-40
2021/05/01 07:07:35;;;;;;;12.07;7.25;;;;;;;8.03;71.21;101488.84;5134956;27;20051;-40
2021/05/01 07:10:06;;;;;;;10.50;6.78;;;;;;;8.07;70.59;101486.59;5134955;27;20049;-37
2021/05/01 07:12:33;;;;;;;8.30;7.25;;;;;;;8.06;70.66;101482.25;5134620;27;20035;-37
2021/05/01 07:15:02;;;;;;;11.18;7.30;;;;;;;8.10;71.37;101483.47;5135365;27;20019;-38
2021/05/01 07:17:28;;;;;;;9.35;7.00;;;;;;;8.19;71.48;101476.91;5135100;27;20031;-38
2021/05/01 07:19:54;;;;;;;7.67;6.10;;;;;;;8.26;70.77;101486.69;5134515;27;20027;-38
2021/05/01 07:22:20;;;;;;;9.00;6.65;;;;;;;8.30;70.39;101487.13;5134781;27;20031;-38
2021/05/01 07:24:45;;;;;;;10.13;5.83;;;;;;;8.34;69.30;101474.88;5134264;27;20491;-38
2021/05/01 07:27:11;;;;;;;9.33;5.93;;;;;;;8.44;70.36;101480.81;5133291;27;20026;-38
2021/05/01 07:29:41;;;;;;;8.77;6.10;;;;;;;8.44;70.05;101480.81;5133829;27;20031;-38
2021/05/01 07:32:14;;;;;;;9.07;6.35;;;;;;;8.46;69.29;101484.09;5134430;27;20538;-38
2021/05/01 07:34:51;;;;;;;9.18;6.57;;;;;;;8.51;68.91;101492.41;5133677;27;20587;-38
2021/05/01 07:37:22;;;;;;;;;;;;;;;8.63;69.74;101499.91;5134807;28;20069;-38
2021/05/01 07:39:52;;;;;;;7.20;5.53;;;;;;;8.59;68.95;101488.72;5135013;27;20001;-38
2021/05/01 07:42:20;;;;;;;7.85;5.38;;;;;;;8.70;67.90;101493.53;5134357;28;20069;-38
2021/05/01 07:44:46;;;;;;;7.88;4.95;;;;;;;8.76;66.33;101492.72;5134368;28;20101;-38
2021/05/01 07:47:15;;;;;;;7.03;4.38;;;;;;;8.76;66.53;101490.00;5134253;28;20046;-38
2021/05/01 07:49:40;;;;;;;5.72;4.28;;;;;;;8.75;67.22;101493.75;5134538;28;20109;-38
2021/05/01 07:52:07;;;;;;;9.10;4.95;;;;;;;8.89;66.43;101502.72;5134297;28;20180;-38
2021/05/01 07:54:33;;;;;;;;;;;;;;;9.01;67.85;101498.38;5134602;28;20043;-39
2021/05/01 07:57:00;;;;;;;8.18;5.00;;;;;;;9.06;65.15;101495.06;5134419;27;19907;-39
2021/05/01 07:59:25;;;;;;;9.13;6.00;;;;;;;9.06;64.78;101500.44;5134322;28;20023;-38
2021/05/01 08:01:50;;;;;;;9.47;6.30;;;;;;;9.12;65.60;101501.50;5134686;28;20516;-38
2021/05/01 08:04:16;;;;;;;7.57;5.53;;;;;;;9.33;65.73;101490.53;5134424;28;20027;-38
2021/05/01 08:06:41;;;;;;;9.00;6.03;;;;;;;9.50;63.29;101501.75;5134131;28;20378;-38
2021/05/01 08:09:07;;;;;;;8.70;6.15;;;;;;;9.60;63.42;101501.31;5134601;28;20057;-38
2021/05/01 08:11:32;;;;;;;7.73;6.17;;;;;;;9.45;62.80;101491.56;5133986;28;20019;-38
2021/05/01 08:13:58;;;;;;;9.27;7.00;;;;;;;9.40;64.88;101501.31;5134568;28;20023;-38
2021/05/01 08:16:24;;;;;;;;;;;;;;;9.63;65.92;101498.22;5134155;28;20467;-38
2021/05/01 08:18:51;;;;;;;7.23;5.77;;;;;;;9.78;63.12;101490.72;5133615;27;19922;-38
2021/05/01 08:21:17;;;;;;;7.63;5.20;;;;;;;9.90;62.04;101494.41;5134750;28;20043;-38
2021/05/01 08:23:43;;;;;;;8.13;6.13;;;;;;;10.08;61.71;101482.97;5133634;28;20032;-38
2021/05/01 08:26:08;;;;;;;9.47;5.77;;;;;;;10.14;60.98;101483.97;5133819;28;20053;-38
2021/05/01 08:28:34;;;;;;;11.05;6.28;;;;;;;10.22;61.90;101478.34;5133819;28;20079;-38
2021/05/01 08:30:59;;;;;;;8.10;5.47;;;;;;;10.26;60.77;101471.50;5134042;28;20110;-39
2021/05/01 08:33:25;;;;;;;7.30;5.33;;;;;;;10.09;60.56;101472.97;5133814;27;20280;-38
2021/05/01 08:35:51;;;;;;;8.77;5.30;;;;;;;9.98;61.49;101475.28;5134064;28;20264;-38
2021/05/01 08:38:18;;;;;;;7.40;4.72;;;;;;;10.12;61.15;101472.56;5133228;28;20460;-38
2021/05/01 08:40:44;;;;;;;8.57;4.25;;;;;;;10.26;59.58;101463.41;5133797;28;20028;-38
2021/05/01 08:43:09;;;;;;;5.75;4.25;;;;;;;10.46;58.68;101466.84;5133321;28;20029;-39
2021/05/01 08:45:35;;;;;;;8.03;4.87;;;;;;;10.50;57.34;101462.69;5136343;27;20447;-39
2021/05/01 08:48:02;;;;;;;6.05;3.75;;;;;;;10.39;57.56;101467.91;5137265;27;20463;-39
2021/05/01 08:50:30;;;;;;;7.68;3.58;;;;;;;10.34;55.59;101460.44;5137007;27;20084;-39
2021/05/01 08:52:57;;;;;;;6.93;3.70;;;;;;;10.63;56.42;101450.13;5136479;27;20035;-39
2021/05/01 08:55:28;;;;;;;5.78;3.75;;;;;;;10.69;56.51;101446.56;5137447;27;20027;-38
2021/05/01 08:57:54;;;;;;;7.60;4.45;;;;;;;10.64;56.86;101459.88;5137302;27;20022;-39
2021/05/01 09:00:21;;;;;;;5.78;4.00;;;;;;;10.92;58.83;101459.50;5136955;27;20039;-38
2021/05/01 09:02:47;;;;;;;5.53;3.53;;;;;;;11.05;54.59;101465.69;5137256;27;20027;-39
2021/05/01 09:05:13;;;;;;;6.25;4.20;;;;;;;10.89;53.81;101459.97;5136768;27;20509;-39
2021/05/01 09:07:41;;;;;;;4.78;3.42;;;;;;;10.86;54.33;101461.22;5137170;27;20047;-39
2021/05/01 09:10:07;;;;;;;5.22;3.97;;;;;;;11.01;54.53;101445.50;5137105;27;20039;-39
2021/05/01 09:12:45;;;;;;;7.22;4.03;;;;;;;11.21;55.67;101447.22;5136505;27;20335;-38
2021/05/01 09:15:18;;;;;;;6.75;4.13;;;;;;;11.27;55.07;101446.34;5137600;27;20047;-39
2021/05/01 09:17:45;;;;;;;4.72;3.10;;;;;;;11.47;52.76;101457.03;5136930;27;20023;-39
2021/05/01 09:20:16;;;;;;;7.22;3.95;;;;;;;11.53;51.63;101451.53;5136611;27;20019;-40
2021/05/01 09:23:14;;;;;;;6.18;3.78;;;;;;;11.65;54.03;101456.22;5136910;27;20030;-39
2021/05/01 09:25:57;;;;;;;5.22;3.88;;;;;;;11.57;52.87;101454.66;5073287;28;20101;-39
2021/05/01 09:28:24;;;;;;;4.68;3.70;;;;;;;11.38;51.56;101461.06;5072863;28;20123;-39
2021/05/01 09:31:07;;;;;;;5.20;3.72;;;;;;;11.19;52.10;101458.28;5073527;28;20037;-38
2021/05/01 09:33:34;;;;;;;8.30;4.35;;;;;;;11.00;51.74;101454.69;5073571;28;20070;-39
2021/05/01 09:36:04;;;;;;;6.95;3.50;;;;;;;10.95;53.56;101468.03;5073060;28;20131;-39
2021/05/01 09:38:32;;;;;;;6.07;4.03;;;;;;;10.90;53.66;101469.75;5073015;28;20074;-39
2021/05/01 09:40:57;;;;;;;6.13;3.88;;;;;;;10.80;52.73;101460.22;5073198;28;20044;-38
2021/05/01 09:43:23;;;;;;;6.43;3.20;;;;;;;10.80;51.48;101470.22;5072758;28;20032;-39
2021/05/01 09:45:48;;;;;;;4.47;3.30;;;;;;;10.83;52.08;101464.34;5073227;28;20078;-39
2021/05/01 09:48:19;;;;;;;5.80;3.87;;;;;;;10.77;51.63;101468.75;5072712;28;20123;-38
2021/05/01 09:50:47;;;;;;;5.72;3.17;;;;;;;10.57;50.91;101474.28;5072594;28;20067;-38
2021/05/01 09:53:17;;;;;;;6.85;4.07;;;;;;;10.73;53.04;101469.41;5072480;28;20036;-38
2021/05/01 09:55:54;;;;;;;5.45;4.32;;;;;;;11.08;52.15;101475.25;5072486;28;20390;-38
2021/05/01 09:58:27;;;;;;;4.95;3.65;;;;;;;11.49;52.74;101471.16;5071995;28;20033;-38
2021/05/01 10:01:13;;;;;;;7.45;3.20;;;;;;;11.68;49.61;101462.03;5095016;27;20121;-38
2021/05/01 10:03:39;;;;;;;5.18;4.18;;;;;;;11.91;49.18;101471.41;5135957;27;20382;-38
2021/05/01 10:06:06;;;;;;;5.70;3.30;;;;;;;11.94;49.14;101457.41;5135307;27;20032;-38
2021/05/01 10:08:33;;;;;;;5.00;2.97;;;;;;;12.19;50.03;101455.47;5116021;27;20112;-38
2021/05/01 10:11:08;;;;;;;4.82;3.20;;;;;;;12.44;47.96;101454.53;5115753;28;20028;-39
2021/05/01 10:13:45;;;;;;;4.47;3.10;;;;;;;12.46;46.90;101458.69;5114857;28;20468;-39
2021/05/01 10:16:11;;;;;;;5.15;2.70;;;;;;;12.24;46.40;101454.78;5115003;28;20024;-39
2021/05/01 10:18:37;;;;;;;7.18;3.22;;;;;;;12.01;45.73;101460.91;5114905;28;20114;-39
2021/05/01 10:21:02;;;;;;;6.15;3.72;;;;;;;11.86;45.43;101461.28;5114930;28;20061;-39
2021/05/01 10:23:27;;;;;;;7.95;2.88;;;;;;;11.75;46.73;101456.53;5115503;28;20028;-39
2021/05/01 10:25:54;;;;;;;6.77;2.93;;;;;;;11.60;46.94;101457.72;5114999;28;20038;-39
2021/05/01 10:28:20;;;;;;;5.78;2.97;;;;;;;11.53;48.18;101462.38;5114511;28;20483;-39
2021/05/01 10:30:50;;;;;;;3.85;2.78;;;;;;;11.42;48.50;101468.53;5114845;28;20080;-41
2021/05/01 10:33:29;;;;;;;6.25;3.45;;;;;;;11.37;49.39;101465.66;5114712;28;20071;-38
2021/05/01 10:36:00;;;;;;;5.32;3.10;;;;;;;11.40;49.38;101467.06;5115231;28;20028;-39
2021/05/01 10:38:26;;;;;;;6.78;3.60;;;;;;;11.65;49.72;101467.06;5114574;28;20020;-39
2021/05/01 10:41:03;;;;;;;4.88;2.90;;;;;;;12.18;49.18;101461.13;5114620;28;20424;-39
2021/05/01 10:43:31;;;;;;;4.03;2.90;;;;;;;12.65;47.27;101462.19;5114629;28;20099;-39
2021/05/01 10:46:05;;;;;;;6.07;3.15;;;;;;;12.88;46.72;101462.28;5115088;28;20406;-39
2021/05/01 10:48:32;;;;;;;4.57;2.80;;;;;;;12.77;44.53;101464.94;5114155;28;20533;-39
2021/05/01 10:50:59;;;;;;;4.60;2.80;;;;;;;12.78;45.61;101450.31;5114703;27;20092;-39
2021/05/01 10:53:24;;;;;;;5.90;3.40;;;;;;;12.76;44.68;101449.72;5114162;28;20031;-39
2021/05/01 10:55:52;;;;;;;4.87;2.87;;;;;;;12.67;45.79;101448.38;5114678;28;20051;-39
2021/05/01 10:58:33;;;;;;;4.43;3.13;;;;;;;12.68;46.32;101452.75;5115253;28;20261;-38
2021/05/01 11:00:59;;;;;;;3.75;2.65;;;;;;;12.69;43.45;101449.81;5114637;28;20051;-39
2021/05/01 11:03:26;;;;;;;3.60;2.67;;;;;;;12.75;42.93;101443.47;5114212;28;20134;-39
2021/05/01 11:05:58;;;;;;;3.63;2.65;;;;;;;12.75;44.01;101445.34;5114088;28;20032;-40
2021/05/01 11:08:59;;;;;;;3.72;2.70;;;;;;;12.70;45.83;101445.22;5114355;28;20047;-39
2021/05/01 11:11:36;;;;;;;6.80;2.97;;;;;;;12.53;45.95;101443.13;5113816;28;20122;-39
2021/05/01 11:14:22;;;;;;;4.90;2.83;;;;;;;12.35;46.51;101438.59;5113789;28;20028;-39
2021/05/01 11:17:12;;;;;;;4.25;3.03;;;;;;;12.21;47.39;101442.53;5114315;28;20028;-39
2021/05/01 11:19:43;;;;;;;3.60;2.88;;;;;;;11.93;43.60;101448.47;5113544;28;20459;-39
2021/05/01 11:22:15;;;;;;;5.50;2.80;;;;;;;11.77;43.62;101449.03;5114406;28;20035;-39
2021/05/01 11:24:44;;;;;;;3.72;2.88;;;;;;;11.62;44.87;101451.28;5113913;28;20134;-39